Aérodrome :
LOGIN :

S'inscrire | Disclaimer

   EN    FR    IT 

 










Légende :    VFR   VFR Marginal   IFR   IFR Intensif   IFR Très Intensif
Visi : 
Plafond : 
>= 8 km
>= 3000ft
5 à 8 km
1000 à 3000 ft
1500m à 5 km
500 à 1000 ft
800 à 1500m
200 à 500 ft
< 800m
< 200 ft
Symboles :   Orages  Brouillard  Fortes neiges  Fortes précipitations  Vent > 20 kt
SIGMETs :   Divers  Orages  Givrage  Turbulence  Onde Orograph.  Cendres Volcan.






- Altitude de l'aérodrome : 2096 ft
- Code IATA : AUR


LFLW - Aurillac

DERNIER METAR :
  • 151430Z AUTO 25006KT 200V300 9999 BKN021/// BKN029/// BKN034/// ///TCU 12/08 Q1015 TEMPO 27015G25KT 4000 SHRA BKN010 BKN025TCU

METARs EXPIRÉS :
  • 151400Z AUTO 27008KT 230V310 9999 FEW031/// ///CB 11/08 Q1015 TEMPO 27015G25KT 4000 SHRA BKN010 BKN025TCU
  • 151330Z AUTO 27009KT 240V300 9999 SCT018/// BKN043/// BKN049/// ///TCU 10/08 Q1015 TEMPO 27015G25KT 4000 SHRA BKN010 BKN025TCU
  • 151300Z AUTO 28009KT 240V340 9999 SCT019/// BKN028/// BKN035/// ///TCU 11/08 Q1015 TEMPO 27015G25KT 4000 SHRA BKN010 BKN025TCU
  • 151230Z AUTO 28009KT 240V320 9999 FEW009/// SCT014/// BKN020/// ///CB 11/08 Q1015 TEMPO 27015G25KT 4000 SHRA BKN010 BKN025TCU
  • 151200Z AUTO 29006KT 240V320 9999 -RA FEW010/// BKN018/// BKN026/// ///TCU 09/09 Q1015 TEMPO 27015G25KT 4000 SHRA BKN010 BKN025TCU

TAF TAF LFLW
Valide du 15 à 15h jusqu'au 16 à 00h UTC


151400Z 1515/1524 27009KT 9999 SCT020 BKN040
PROB40
TEMPO 1515/1518 27015G25KT 4000 SHRA BKN010 BKN025TCU
BECMG 1518/1520 VRB02KT



MET'MAP, la Météo Aéronautique d'un coup d'oeil ! - Copyright ORBIFLY Décembre 2007 - Disclaimer

ORBIFLY MET'MAP TEAM :

Programmation & Développement : Alexandra Zaïnal
Conception & Développement : Baudouin d'Aumeries
Co-Programmation & Développement : Marc-Olivier Méhu
Soutien technique & logistique : Manuel Goepfert

Contact : metmap@orbifly.com




SOURCES & CREDITS :

   NOAA